Řízení letového provozu České republiky
Letiste: LKPD Aktualizace: 26.05.2016 10:11:28  UTC
 METAR LKPD 26.05. 10:00 ...
METAR LKPD 261000Z 27007KT 230V340 9999 BKN025 BKN043 18/11 Q1017 NOSIG =
 TAF LKPD 26.05. 05:00 ...
TAF LKPD 260500Z 2606/2706 28006KT 9999 SCT015      BECMG 2608/2610 BKN025      BECMG 2614/2616 VRB02KT CAVOK      TEMPO 2701/2705 5000 BR=